Time;durP1;ratioP1;P1;durP2;ratioP2;P2;SDS_P1;SDS_P2;PMS_P1;PMS_P2;Temp;Humidity;BMP_temperature;BMP_pressure;BME280_temperature;BME280_humidity;BME280_pressure;Samples;Min_cycle;Max_cycle;Signal;HPM_P1;HPM_P2
2023/11/10 00:01:21;;;;;;;;;49.00;41.67;;;;;5.23;100.00;99273.78;6312754;20;2862928;-41
2023/11/10 00:03:51;;;;;;;;;49.00;40.67;;;;;5.27;100.00;99279.84;6316938;20;3621071;-45
2023/11/10 00:06:21;;;;;;;;;54.00;40.00;;;;;5.16;100.00;99268.81;6283100;20;3623137;-41
2023/11/10 00:08:50;;;;;;;;;58.00;46.00;;;;;5.05;100.00;99267.56;6313675;20;2855474;-42
2023/11/10 00:11:19;;;;;;;;;51.50;39.50;;;;;5.13;100.00;99261.84;6280105;20;2872261;-43
2023/11/10 00:13:48;;;;;;;;;55.00;43.00;;;;;5.23;100.00;99259.63;6281098;20;2877367;-43
2023/11/10 00:16:20;;;;;;;;;53.50;44.00;;;;;5.56;100.00;99262.50;6277755;20;2492989;-41
2023/11/10 00:18:49;;;;;;;;;54.00;42.00;;;;;5.72;100.00;99267.97;6283913;20;2864848;-42
2023/11/10 00:21:19;;;;;;;;;54.00;43.00;;;;;5.47;100.00;99263.78;6282107;20;2854448;-43
2023/11/10 00:23:50;;;;;;;;;42.33;39.00;;;;;5.97;100.00;99266.78;6281358;20;2869243;-43
2023/11/10 00:26:23;;;;;;;;;45.00;37.50;;;;;5.73;100.00;99269.66;6312389;20;2859686;-44
2023/11/10 00:28:53;;;;;;;;;39.67;36.00;;;;;5.90;100.00;99275.06;6282379;20;2853463;-41
2023/11/10 00:31:22;;;;;;;;;46.67;37.00;;;;;6.08;100.00;99275.09;6316503;20;3606522;-44
2023/11/10 00:33:52;;;;;;;;;44.00;37.67;;;;;6.05;100.00;99277.91;6279923;20;2863920;-44
2023/11/10 00:36:24;;;;;;;;;41.67;35.33;;;;;5.77;100.00;99276.59;6311587;20;3588798;-42
2023/11/10 00:38:54;;;;;;;;;39.33;36.00;;;;;4.79;100.00;99281.13;6279964;20;2871357;-42
2023/11/10 00:41:23;;;;;;;;;39.00;35.33;;;;;4.69;100.00;99285.16;6312635;20;3605499;-44
2023/11/10 00:43:52;;;;;;;;;37.00;36.50;;;;;4.72;100.00;99277.03;6278348;20;2849278;-43
2023/11/10 00:46:21;;;;;;;;;43.67;37.00;;;;;4.69;100.00;99278.03;6280228;20;2856667;-41
2023/11/10 00:48:51;;;;;;;;;44.67;35.00;;;;;4.62;100.00;99272.13;6310704;20;3620042;-41
2023/11/10 00:51:20;;;;;;;;;32.50;31.50;;;;;4.17;100.00;99272.31;6310324;20;2845104;-42
2023/11/10 00:53:49;;;;;;;;;40.50;36.50;;;;;4.67;100.00;99273.72;6279196;20;2848299;-42
2023/11/10 00:56:18;;;;;;;;;49.00;38.33;;;;;4.58;100.00;99270.53;6281189;20;2869085;-42
2023/11/10 00:58:47;;;;;;;;;56.00;45.00;;;;;4.77;100.00;99272.38;6311263;20;2859779;-41
2023/11/10 01:01:16;;;;;;;;;57.50;47.00;;;;;5.07;100.00;99265.66;6280430;20;2852435;-43
2023/11/10 01:03:44;;;;;;;;;57.00;46.00;;;;;4.93;100.00;99257.47;6280334;20;2868045;-41
2023/11/10 01:06:14;;;;;;;;;61.33;46.33;;;;;4.98;100.00;99259.91;6276966;20;2893153;-43
2023/11/10 01:08:44;;;;;;;;;49.00;39.00;;;;;4.92;100.00;99242.41;6312762;20;2872185;-45
2023/11/10 01:11:14;;;;;;;;;51.67;40.00;;;;;4.61;100.00;99251.78;6310045;20;2859818;-43
2023/11/10 01:13:44;;;;;;;;;47.67;42.00;;;;;4.86;100.00;99241.84;6306250;20;2856614;-44
2023/11/10 01:16:13;;;;;;;;;51.50;43.00;;;;;4.84;100.00;99233.91;6312103;20;2858595;-42
2023/11/10 01:18:42;;;;;;;;;40.50;37.00;;;;;4.97;100.00;99237.75;6280580;20;2846159;-44
2023/11/10 01:21:12;;;;;;;;;50.33;36.33;;;;;4.66;100.00;99216.13;6276826;20;2870267;-42
2023/11/10 01:23:41;;;;;;;;;37.50;34.50;;;;;4.59;100.00;99220.88;6308747;20;2858774;-44
2023/11/10 01:26:12;;;;;;;;;44.33;39.00;;;;;4.44;100.00;99213.59;6280377;20;2858687;-42
2023/11/10 01:28:42;;;;;;;;;41.67;38.67;;;;;4.82;100.00;99215.38;6311050;20;2855681;-43
2023/11/10 01:31:14;;;;;;;;;45.33;37.00;;;;;4.43;100.00;99215.38;6308938;20;2863974;-42
2023/11/10 01:33:43;;;;;;;;;46.50;37.50;;;;;4.62;100.00;99210.09;6306127;20;2864872;-45
2023/11/10 01:36:12;;;;;;;;;56.50;44.50;;;;;4.60;100.00;99209.31;6275954;20;2856551;-42
2023/11/10 01:38:41;;;;;;;;;49.50;43.50;;;;;4.28;100.00;99206.28;6278176;20;2837789;-43
2023/11/10 01:41:10;;;;;;;;;58.00;45.00;;;;;4.79;100.00;99198.69;6276016;20;2852317;-42
2023/11/10 01:43:40;;;;;;;;;62.00;48.00;;;;;4.91;100.00;99192.81;6278711;20;3621235;-42
2023/11/10 01:46:45;;;;;;;;;69.00;54.33;;;;;4.82;100.00;99186.13;6308016;20;3631499;-42
2023/11/10 01:49:21;;;;;;;;;65.00;50.00;;;;;5.30;100.00;99185.69;6306869;20;2874488;-44
2023/11/10 01:51:55;;;;;;;;;58.50;45.50;;;;;5.17;100.00;99180.09;6308157;20;2853482;-42
2023/11/10 01:54:34;;;;;;;;;53.00;41.33;;;;;5.17;100.00;99180.09;6273137;20;2857568;-42
2023/11/10 01:57:05;;;;;;;;;53.00;39.00;;;;;5.37;100.00;99176.47;6311587;20;2836749;-42
2023/11/10 01:59:35;;;;;;;;;48.33;41.00;;;;;5.31;100.00;99166.97;6279395;20;2873282;-43
2023/11/10 02:02:03;;;;;;;;;56.50;44.00;;;;;5.41;100.00;99162.94;6306847;20;2844132;-42
2023/11/10 02:04:33;;;;;;;;;49.00;38.50;;;;;5.77;100.00;99170.03;6282645;20;2851319;-41
2023/11/10 02:07:03;;;;;;;;;32.50;31.50;;;;;5.20;100.00;99163.97;6285088;20;2844095;-44
2023/11/10 02:09:33;;;;;;;;;39.67;36.00;;;;;4.75;100.00;99173.19;6286196;20;2867044;-42
2023/11/10 02:12:03;;;;;;;;;44.67;35.67;;;;;5.00;100.00;99168.47;6316224;20;3634620;-42
2023/11/10 02:14:32;;;;;;;;;38.00;33.00;;;;;3.88;100.00;99167.28;6314430;20;2861870;-42
2023/11/10 02:17:02;;;;;;;;;46.33;37.00;;;;;3.78;100.00;99158.00;6314356;20;3628385;-42
2023/11/10 02:19:33;;;;;;;;;38.67;34.67;;;;;4.51;100.00;99148.59;6314624;20;2867421;-44
2023/11/10 02:22:04;;;;;;;;;40.67;35.67;;;;;4.59;100.00;99157.06;6310938;20;2853503;-42
2023/11/10 02:24:35;;;;;;;;;38.00;35.67;;;;;5.01;100.00;99159.53;6317275;20;3601306;-43
2023/11/10 02:27:06;;;;;;;;;42.67;34.33;;;;;5.48;100.00;99167.03;6279792;20;2875478;-43
2023/11/10 02:29:40;;;;;;;;;40.00;33.00;;;;;5.05;100.00;99163.78;6316823;20;2859672;-43
2023/11/10 02:32:11;;;;;;;;;40.00;35.33;;;;;5.07;100.00;99148.59;6314168;20;2863879;-42
2023/11/10 02:34:41;;;;;;;;;44.33;35.33;;;;;4.59;100.00;99149.97;6314083;20;2872384;-42
2023/11/10 02:37:10;;;;;;;;;32.00;27.00;;;;;4.25;100.00;99144.44;6311824;20;2850312;-44
2023/11/10 02:39:40;;;;;;;;;37.00;35.00;;;;;4.31;100.00;99152.13;6282704;20;2860697;-43
2023/11/10 02:42:08;;;;;;;;;35.00;32.50;;;;;4.72;100.00;99152.06;6279866;20;2851408;-45
2023/11/10 02:44:38;;;;;;;;;41.67;37.00;;;;;4.32;100.00;99151.22;6282480;20;3628540;-43
2023/11/10 02:47:08;;;;;;;;;38.00;33.67;;;;;4.35;100.00;99148.41;6312805;20;2863912;-42
2023/11/10 02:49:37;;;;;;;;;38.33;35.67;;;;;4.05;100.00;99146.16;6312491;20;2871210;-39
2023/11/10 02:52:07;;;;;;;;;43.00;36.00;;;;;4.25;100.00;99141.78;6309817;20;3624279;-39
2023/11/10 02:54:36;;;;;;;;;38.00;35.33;;;;;4.33;100.00;99137.00;6309677;20;2865024;-38
2023/11/10 02:57:05;;;;;;;;;37.50;30.50;;;;;4.48;100.00;99132.78;6312659;20;2854139;-40
2023/11/10 02:59:37;;;;;;;;;40.67;29.67;;;;;4.95;100.00;99138.56;6282698;20;2873389;-38
2023/11/10 03:02:06;;;;;;;;;39.00;33.33;;;;;4.33;100.00;99142.31;6308598;20;3618139;-43
2023/11/10 03:04:40;;;;;;;;;40.67;36.67;;;;;4.25;100.00;99136.47;6311137;20;2870189;-43
2023/11/10 03:07:10;;;;;;;;;40.00;37.50;;;;;4.65;100.00;99129.34;6311972;20;2856542;-44
2023/11/10 03:09:40;;;;;;;;;42.00;34.33;;;;;4.96;100.00;99134.94;6281321;20;3623174;-44
2023/11/10 03:12:10;;;;;;;;;43.00;36.33;;;;;4.94;100.00;99130.63;6309211;20;2863899;-44
2023/11/10 03:14:44;;;;;;;;;42.33;35.00;;;;;4.77;100.00;99134.09;6309910;20;2873382;-42
2023/11/10 03:17:13;;;;;;;;;44.50;37.00;;;;;5.27;100.00;99128.16;6309582;20;2867983;-43
2023/11/10 03:19:42;;;;;;;;;45.67;36.67;;;;;5.43;100.00;99129.13;6280598;20;2860774;-44
2023/11/10 03:22:13;;;;;;;;;40.33;37.67;;;;;4.57;100.00;99138.53;6310118;20;2856600;-43
2023/11/10 03:24:45;;;;;;;;;40.00;36.50;;;;;4.30;100.00;99135.31;6312170;20;2851329;-43
2023/11/10 03:27:14;;;;;;;;;32.00;27.00;;;;;4.36;100.00;99134.19;6277497;20;2500386;-42
2023/11/10 03:29:43;;;;;;;;;47.00;39.00;;;;;4.74;100.00;99134.22;6280361;20;2852512;-44
2023/11/10 03:32:14;;;;;;;;;49.00;41.33;;;;;4.32;100.00;99116.69;6278293;20;2866010;-43
2023/11/10 03:34:45;;;;;;;;;46.88;38.88;;;;;3.85;100.00;99127.59;6197005;20;3610703;-43
2023/11/10 03:37:14;;;;;;;;;49.00;41.00;;;;;4.26;100.00;99116.94;6282332;20;2846257;-43
2023/11/10 03:39:43;;;;;;;;;49.00;40.00;;;;;4.52;100.00;99123.72;6281343;20;2842997;-44
2023/11/10 03:42:12;;;;;;;;;64.67;51.00;;;;;4.93;100.00;99126.25;6282052;20;2869620;-42
2023/11/10 03:44:42;;;;;;;;;65.00;49.33;;;;;5.05;100.00;99118.56;6311498;20;3627363;-43
2023/11/10 03:47:11;;;;;;;;;51.50;44.50;;;;;4.36;100.00;99112.94;6313391;20;2867006;-43
2023/11/10 03:49:41;;;;;;;;;64.33;44.33;;;;;4.65;100.00;99106.25;6282185;20;2860731;-46
2023/11/10 03:52:10;;;;;;;;;54.50;41.00;;;;;4.43;100.00;99116.19;6309226;20;2879563;-42
2023/11/10 03:54:39;;;;;;;;;56.00;41.67;;;;;4.39;100.00;99107.47;6280485;20;2867991;-44
2023/11/10 03:57:09;;;;;;;;;47.33;39.67;;;;;4.65;100.00;99106.25;6313439;20;2860786;-42
2023/11/10 03:59:41;;;;;;;;;47.00;40.50;;;;;4.66;100.00;99101.81;6311569;20;2873266;-46
2023/11/10 04:02:11;;;;;;;;;46.67;38.67;;;;;4.43;100.00;99113.53;6281718;20;3619024;-42
2023/11/10 04:04:40;;;;;;;;;44.67;37.00;;;;;4.04;100.00;99099.28;6312756;20;2855486;-43
2023/11/10 04:07:10;;;;;;;;;44.67;36.33;;;;;3.41;100.00;99102.00;6312246;20;2877465;-42
2023/11/10 04:09:41;;;;;;;;;44.67;37.33;;;;;4.21;100.00;99108.28;6312353;20;3617976;-43
2023/11/10 04:12:09;;;;;;;;;39.50;38.00;;;;;4.00;100.00;99100.34;6309662;20;2842988;-42
2023/11/10 04:14:40;;;;;;;;;49.33;39.67;;;;;3.64;100.00;99093.06;6280882;20;2873223;-46
2023/11/10 04:17:09;;;;;;;;;43.50;38.00;;;;;3.37;100.00;99086.25;6311060;20;2852498;-43
2023/11/10 04:19:38;;;;;;;;;26.00;18.33;;;;;3.14;100.00;99085.44;6281540;20;3571140;-44
2023/11/10 04:22:07;;;;;;;;;42.50;38.00;;;;;3.20;100.00;99084.31;6310681;20;2864903;-43
2023/11/10 04:24:37;;;;;;;;;53.67;39.00;;;;;3.70;100.00;99092.81;6281183;20;3625451;-43
2023/11/10 04:27:06;;;;;;;;;58.50;45.50;;;;;3.45;100.00;99081.50;6307653;20;2858732;-42
2023/11/10 04:29:36;;;;;;;;;62.00;44.00;;;;;3.95;100.00;99075.81;6281037;20;2876801;-42
2023/11/10 04:32:05;;;;;;;;;59.50;46.00;;;;;4.48;100.00;99080.47;6307490;20;2489883;-43
2023/11/10 04:34:34;;;;;;;;;49.50;44.50;;;;;4.45;100.00;99072.66;6279656;20;2857588;-44
2023/11/10 04:37:06;;;;;;;;;49.33;36.67;;;;;3.80;100.00;99077.34;6281135;20;2880569;-43
2023/11/10 04:39:38;;;;;;;;;45.33;39.33;;;;;3.54;100.00;99069.66;6309589;20;3605468;-43
2023/11/10 04:42:07;;;;;;;;;41.00;38.00;;;;;3.46;100.00;99059.34;6279788;20;2850313;-46
2023/11/10 04:44:35;;;;;;;;;51.50;42.00;;;;;3.67;100.00;99055.78;6278426;20;2508638;-44
2023/11/10 04:47:04;;;;;;;;;51.50;42.00;;;;;3.77;100.00;99055.38;6281387;20;2864913;-42
2023/11/10 04:49:32;;;;;;;;;51.50;43.00;;;;;4.09;100.00;99062.75;6280651;20;2685701;-43
2023/11/10 04:52:02;;;;;;;;;52.33;38.67;;;;;4.20;100.00;99049.00;6276869;20;2881626;-44
2023/11/10 04:54:33;;;;;;;;;42.00;39.33;;;;;3.69;100.00;99043.31;6311972;20;3620075;-43
2023/11/10 04:57:03;;;;;;;;;42.67;38.00;;;;;3.59;100.00;99041.97;6309128;20;2859648;-45
2023/11/10 04:59:33;;;;;;;;;38.50;32.00;;;;;3.62;100.00;99046.28;6311977;20;2863920;-42
2023/11/10 05:02:02;;;;;;;;;39.00;38.00;;;;;3.56;100.00;99047.44;6277856;20;2869032;-42
2023/11/10 05:04:32;;;;;;;;;60.67;43.33;;;;;3.56;100.00;99054.53;6280880;20;3617004;-44
2023/11/10 05:07:02;;;;;;;;;47.67;40.00;;;;;3.19;100.00;99054.28;6306034;20;3621145;-44
2023/11/10 05:09:31;;;;;;;;;51.67;45.00;;;;;3.15;100.00;99052.69;6307068;20;2861997;-42
2023/11/10 05:12:01;;;;;;;;;54.33;41.00;;;;;3.50;100.00;99052.97;6310096;20;2865872;-44
2023/11/10 05:14:30;;;;;;;;;55.00;41.00;;;;;4.09;100.00;99052.13;6309762;20;2858673;-42
2023/11/10 05:17:00;;;;;;;;;52.00;40.00;;;;;3.87;100.00;99051.38;6278777;20;3621165;-44
2023/11/10 05:19:29;;;;;;;;;58.00;41.00;;;;;3.90;100.00;99051.25;6311007;20;3643041;-41
2023/11/10 05:21:59;;;;;;;;;46.00;37.33;;;;;3.37;100.00;99057.09;6308841;20;2859692;-44
2023/11/10 05:24:29;;;;;;;;;46.50;37.50;;;;;3.82;100.00;99058.66;6309396;20;2869592;-41
2023/11/10 05:26:59;;;;;;;;;45.33;39.00;;;;;3.88;100.00;99047.81;6277318;20;2860783;-42
2023/11/10 05:29:28;;;;;;;;;43.50;38.00;;;;;3.28;100.00;99051.25;6310560;20;2846152;-42
2023/11/10 05:31:58;;;;;;;;;34.00;29.00;;;;;3.88;100.00;99051.31;6276925;20;2853539;-46
2023/11/10 05:34:29;;;;;;;;;51.67;38.00;;;;;3.65;100.00;99049.66;6278404;20;2881666;-41
2023/11/10 05:36:59;;;;;;;;;42.00;34.33;;;;;3.88;100.00;99051.31;6310451;20;2869190;-46
2023/11/10 05:39:29;;;;;;;;;45.00;38.00;;;;;3.71;100.00;99041.44;6311178;20;3620066;-41
2023/11/10 05:41:58;;;;;;;;;39.33;33.67;;;;;3.27;100.00;99044.22;6310108;20;2863293;-44
2023/11/10 05:44:28;;;;;;;;;39.33;36.33;;;;;3.39;100.00;99055.22;6311718;20;2866972;-44
2023/11/10 05:46:57;;;;;;;;;41.00;37.00;;;;;3.54;100.00;99038.66;6311524;20;2868034;-44
2023/11/10 05:49:26;;;;;;;;;38.50;34.00;;;;;3.86;100.00;99039.88;6279479;20;2861854;-45
2023/11/10 05:51:55;;;;;;;;;44.33;36.33;;;;;3.80;100.00;99048.13;6277805;20;3629430;-43
2023/11/10 05:54:26;;;;;;;;;37.33;30.00;;;;;4.09;100.00;99045.97;6308640;20;3607653;-44
2023/11/10 05:56:55;;;;;;;;;40.00;35.67;;;;;3.87;100.00;99035.44;6308320;20;2861730;-42
2023/11/10 05:59:27;;;;;;;;;50.50;41.00;;;;;3.66;100.00;99040.78;6306808;20;2854521;-45
2023/11/10 06:01:57;;;;;;;;;50.00;44.00;;;;;3.86;100.00;99052.31;6273510;20;2848314;-45
2023/11/10 06:04:26;;;;;;;;;62.00;45.50;;;;;4.72;100.00;99045.69;6278534;20;2878363;-42
2023/11/10 06:07:04;;;;;;;;;54.00;43.50;;;;;4.82;100.00;99047.84;6279251;20;2852790;-43
2023/11/10 06:09:33;;;;;;;;;33.00;28.00;;;;;4.37;100.00;99045.53;6276480;20;2848199;-48
2023/11/10 06:12:07;;;;;;;;;31.00;28.50;;;;;4.28;100.00;99045.97;6280220;20;2846201;-50
2023/11/10 06:14:36;;;;;;;;;35.00;28.50;;;;;4.04;100.00;99043.50;6279312;20;2857575;-50
2023/11/10 06:17:06;;;;;;;;;96.33;74.00;;;;;4.22;100.00;99051.59;6274404;20;3671616;-52
2023/11/10 06:19:35;;;;;;;;;49.50;40.00;;;;;4.96;100.00;99055.13;6311387;20;2847201;-49
2023/11/10 06:22:04;;;;;;;;;28.50;27.50;;;;;5.48;100.00;99049.03;6275069;20;2835827;-50
2023/11/10 06:24:34;;;;;;;;;27.00;26.00;;;;;4.68;100.00;99057.41;6276559;20;2847299;-48
2023/11/10 06:27:03;;;;;;;;;31.00;26.00;;;;;4.50;100.00;99062.66;6277269;20;2849257;-47
2023/11/10 06:29:32;;;;;;;;;37.00;27.50;;;;;4.68;100.00;99063.56;6279672;20;2857704;-46
2023/11/10 06:32:01;;;;;;;;;22.33;18.67;;;;;5.86;100.00;99057.66;6274642;20;3534588;-44
2023/11/10 06:34:31;;;;;;;;;19.50;19.00;;;;;5.23;100.00;99065.34;6305814;20;2491967;-43
2023/11/10 06:37:01;;;;;;;;;29.00;29.00;;;;;6.08;100.00;99061.91;6276742;20;2845247;-44
2023/11/10 06:39:31;;;;;;;;;41.67;35.33;;;;;8.85;95.40;99060.78;6278213;20;2853399;-42
2023/11/10 06:42:00;;;;;;;;;29.00;26.00;;;;;9.70;90.65;99055.16;6306347;20;2848333;-43
2023/11/10 06:44:28;;;;;;;;;19.50;18.00;;;;;6.89;93.00;99049.44;6278389;20;2496246;-44
2023/11/10 06:46:59;;;;;;;;;26.50;24.00;;;;;5.59;100.00;99053.78;6278279;20;2846201;-45
2023/11/10 06:49:29;;;;;;;;;34.67;31.67;;;;;5.31;100.00;99055.19;6278336;20;3598223;-45
2023/11/10 06:51:58;;;;;;;;;30.50;27.50;;;;;5.32;100.00;99061.34;6313209;20;2853433;-48
2023/11/10 06:54:27;;;;;;;;;33.00;32.00;;;;;5.12;100.00;99068.53;6281417;20;2856525;-50
2023/11/10 06:56:58;;;;;;;;;50.33;41.33;;;;;4.99;100.00;99073.59;6282216;20;2868060;-52
2023/11/10 06:59:29;;;;;;;;;30.50;26.50;;;;;5.36;100.00;99071.78;6312746;20;2848230;-48
2023/11/10 07:01:57;;;;;;;;;27.00;23.50;;;;;5.64;100.00;99078.38;6282406;20;2858645;-49
2023/11/10 07:04:27;;;;;;;;;35.33;28.33;;;;;6.99;100.00;99063.97;6284991;20;2852394;-46
2023/11/10 07:06:56;;;;;;;;;40.00;36.00;;;;;6.81;100.00;99063.19;6313598;20;2807558;-51
2023/11/10 07:09:25;;;;;;;;;33.00;30.00;;;;;6.40;100.00;99062.84;6279378;20;2850411;-50
2023/11/10 07:11:53;;;;;;;;;30.50;27.00;;;;;6.15;100.00;99068.63;6278497;20;2500281;-55
2023/11/10 07:14:23;;;;;;;;;34.67;28.33;;;;;6.36;100.00;99067.47;6283531;20;2854538;-49
2023/11/10 07:16:52;;;;;;;;;24.50;24.00;;;;;6.28;100.00;99063.50;6313752;20;2848249;-51
2023/11/10 07:19:21;;;;;;;;;45.00;38.00;;;;;5.94;100.00;99055.50;6283062;20;2863805;-46
2023/11/10 07:21:50;;;;;;;;;44.00;37.33;;;;;6.00;100.00;99056.13;6280676;20;3607574;-49
2023/11/10 07:24:19;;;;;;;;;40.33;35.00;;;;;6.63;100.00;99053.56;6315653;20;3607596;-49
2023/11/10 07:26:48;;;;;;;;;28.50;25.00;;;;;6.08;100.00;99044.13;6283852;20;2829511;-50
2023/11/10 07:29:18;;;;;;;;;32.67;23.33;;;;;6.28;100.00;99051.03;6281681;20;2867002;-50
2023/11/10 07:31:47;;;;;;;;;17.67;16.33;;;;;6.38;100.00;99049.59;6312850;20;3547116;-49
2023/11/10 07:34:16;;;;;;;;;26.00;22.00;;;;;6.93;100.00;99044.81;6280476;20;2837746;-47
2023/11/10 07:36:44;;;;;;;;;23.50;21.00;;;;;6.61;100.00;99044.81;6280550;20;2500277;-49
2023/11/10 07:39:14;;;;;;;;;18.00;17.00;;;;;6.42;100.00;99031.59;6283307;20;2825330;-51
2023/11/10 07:41:43;;;;;;;;;33.00;29.67;;;;;6.45;100.00;99038.56;6278767;20;2858642;-39
2023/11/10 07:44:12;;;;;;;;;24.50;22.00;;;;;6.56;100.00;99028.19;6310458;20;2852382;-38
2023/11/10 07:46:40;;;;;;;;;22.00;21.50;;;;;6.82;100.00;99032.94;6277662;20;2500287;-39
2023/11/10 07:49:11;;;;;;;;;24.00;22.00;;;;;6.73;100.00;99032.56;6281686;20;2848402;-39
2023/11/10 07:51:41;;;;;;;;;73.33;56.67;;;;;7.15;100.00;99028.41;6281100;20;3629449;-41
2023/11/10 07:54:16;;;;;;;;;83.67;67.00;;;;;7.37;100.00;99044.00;6313405;20;3672150;-39
2023/11/10 07:56:46;;;;;;;;;28.33;25.67;;;;;7.59;100.00;99044.47;6279875;20;2856591;-40
2023/11/10 07:59:15;;;;;;;;;25.50;25.50;;;;;7.23;100.00;99051.03;6309624;20;2844056;-38
2023/11/10 08:01:44;;;;;;;;;26.00;24.00;;;;;7.03;100.00;99038.84;6272949;20;2837936;-38
2023/11/10 08:04:13;;;;;;;;;54.00;45.00;;;;;7.17;100.00;99042.53;6279071;20;2748234;-38
2023/11/10 08:06:44;;;;;;;;;82.00;64.67;;;;;6.76;100.00;99027.91;6308715;20;3660673;-38
2023/11/10 08:09:15;;;;;;;;;47.50;38.50;;;;;7.04;100.00;99026.34;6276278;20;2858697;-39
2023/11/10 08:11:44;;;;;;;;;38.00;34.00;;;;;7.15;100.00;99026.59;6275497;20;2500400;-38
2023/11/10 08:14:22;;;;;;;;;17.33;16.33;;;;;6.92;100.00;99022.56;6282423;20;3558754;-38
2023/11/10 08:16:50;;;;;;;;;23.00;21.00;;;;;6.72;100.00;99021.06;6280150;20;2500411;-39
2023/11/10 08:19:19;;;;;;;;;18.33;18.33;;;;;7.06;100.00;99019.13;6281041;20;3544140;-38
2023/11/10 08:21:48;;;;;;;;;18.00;17.00;;;;;7.18;100.00;99013.06;6277507;20;2494142;-39
2023/11/10 08:24:16;;;;;;;;;27.50;24.00;;;;;7.38;100.00;99016.38;6281758;20;2494557;-38
2023/11/10 08:26:44;;;;;;;;;28.00;23.00;;;;;7.11;100.00;99005.50;6283866;20;2500258;-38
2023/11/10 08:29:13;;;;;;;;;21.50;19.00;;;;;7.21;100.00;99002.22;6277998;20;2498203;-37
2023/11/10 08:31:42;;;;;;;;;23.00;19.00;;;;;7.26;100.00;99000.09;6284649;20;2835789;-38
2023/11/10 08:34:10;;;;;;;;;21.00;21.00;;;;;7.22;100.00;98995.91;6282347;20;2500383;-38
2023/11/10 08:36:40;;;;;;;;;22.50;19.50;;;;;7.68;100.00;98998.47;6280959;20;2836747;-45
2023/11/10 08:39:08;;;;;;;;;24.00;19.00;;;;;7.77;100.00;99004.25;6279738;20;2500307;-39
2023/11/10 08:41:37;;;;;;;;;36.00;30.33;;;;;7.88;100.00;99007.13;6282550;20;3590870;-40
2023/11/10 08:44:08;;;;;;;;;25.00;20.00;;;;;8.17;100.00;99001.78;6314143;20;2850281;-50
2023/11/10 08:46:36;;;;;;;;;19.00;19.00;;;;;8.11;100.00;99006.56;6285180;20;2829448;-51
2023/11/10 08:49:05;;;;;;;;;19.50;18.00;;;;;7.49;100.00;99008.56;6281817;20;2500267;-49
2023/11/10 08:51:34;;;;;;;;;17.00;16.00;;;;;7.45;100.00;99017.72;6280616;20;3556515;-50
2023/11/10 08:54:03;;;;;;;;;25.50;21.50;;;;;7.89;100.00;99015.03;6282574;20;2837799;-47
2023/11/10 08:56:33;;;;;;;;;45.67;33.00;;;;;7.80;100.00;99025.44;6285281;20;2886886;-48
2023/11/10 08:59:03;;;;;;;;;20.00;20.00;;;;;7.79;100.00;99023.69;6309515;20;2496147;-54
2023/11/10 09:01:33;;;;;;;;;38.00;35.67;;;;;7.79;100.00;99018.34;6279781;20;2849420;-51
2023/11/10 09:04:06;;;;;;;;;25.00;19.50;;;;;7.75;100.00;99014.16;6313916;20;2839911;-48
2023/11/10 09:06:52;;;;;;;;;52.00;42.33;;;;;7.68;100.00;99005.66;6282837;20;2858731;-49
2023/11/10 09:09:21;;;;;;;;;30.00;26.00;;;;;7.73;100.00;99006.22;6315890;20;2854477;-48
2023/11/10 09:11:51;;;;;;;;;34.00;29.00;;;;;7.54;100.00;98998.47;6279798;20;2858599;-48
2023/11/10 09:14:20;;;;;;;;;41.67;36.00;;;;;8.02;100.00;98982.19;6315186;20;3606549;-52
2023/11/10 09:16:49;;;;;;;;;24.00;24.00;;;;;7.88;100.00;98975.91;6283411;20;2848276;-50
2023/11/10 09:19:20;;;;;;;;;25.50;22.50;;;;;8.20;100.00;98978.38;6281273;20;2846239;-48
2023/11/10 09:21:50;;;;;;;;;48.67;39.00;;;;;8.87;100.00;98975.00;6280633;20;2858665;-48
2023/11/10 09:24:21;;;;;;;;;89.67;77.00;;;;;8.59;98.64;98965.25;6313456;20;3664910;-47
2023/11/10 09:26:50;;;;;;;;;25.00;20.00;;;;;8.30;99.80;98954.59;6283715;20;2846104;-39
2023/11/10 09:29:20;;;;;;;;;89.00;72.33;;;;;8.69;98.03;98971.69;6312687;20;3674280;-41
2023/11/10 09:31:51;;;;;;;;;24.50;23.50;;;;;8.30;99.53;98970.63;6280100;20;2846104;-39
2023/11/10 09:34:23;;;;;;;;;32.33;27.67;;;;;8.96;97.94;98963.69;6279284;20;3598240;-52
2023/11/10 09:36:56;;;;;;;;;34.67;30.33;;;;;8.91;97.20;98955.09;6315768;20;3608667;-48
2023/11/10 09:39:25;;;;;;;;;27.00;23.00;;;;;9.31;96.90;98963.97;6280867;20;2846093;-50
2023/11/10 09:42:08;;;;;;;;;24.00;21.00;;;;;9.50;94.99;98962.72;6277784;20;2836793;-53
2023/11/10 09:44:55;;;;;;;;;23.33;18.67;;;;;9.21;94.23;98966.41;6283142;20;3578377;-40
2023/11/10 09:47:27;;;;;;;;;19.00;17.00;;;;;8.60;96.61;98956.25;6281445;20;2827375;-40
2023/11/10 09:49:56;;;;;;;;;16.00;16.00;;;;;8.48;99.99;98948.09;6282025;20;2831553;-40
2023/11/10 09:52:26;;;;;;;;;18.50;16.50;;;;;8.25;99.76;98943.31;6275301;20;2821127;-42
2023/11/10 09:54:55;;;;;;;;;20.00;16.00;;;;;9.31;97.78;98941.69;6281773;20;2827463;-42
2023/11/10 09:57:26;;;;;;;;;20.50;18.00;;;;;9.14;95.37;98918.75;6276758;20;2500287;-39
2023/11/10 09:59:58;;;;;;;;;17.00;17.00;;;;;8.50;98.79;98918.53;6279969;20;3560697;-40
2023/11/10 10:02:30;;;;;;;;;57.67;43.00;;;;;8.85;97.29;98913.53;6307767;20;2869163;-44
2023/11/10 10:05:03;;;;;;;;;58.33;41.67;;;;;8.85;98.62;98910.88;6311334;20;3628401;-38
2023/11/10 10:07:32;;;;;;;;;25.00;21.00;;;;;8.73;98.26;98911.69;6278197;20;2834721;-42
2023/11/10 10:10:02;;;;;;;;;25.00;22.00;;;;;8.67;99.70;98912.09;6278948;20;2836770;-39
2023/11/10 10:12:35;;;;;;;;;46.67;32.67;;;;;8.93;98.63;98899.66;6276243;20;3650273;-49
2023/11/10 10:15:05;;;;;;;;;20.67;19.67;;;;;8.54;99.40;98899.50;6308319;20;3564895;-51
2023/11/10 10:17:37;;;;;;;;;16.83;16.17;;;;;8.68;100.00;98906.63;6304486;20;2825403;-55
2023/11/10 10:20:18;;;;;;;;;80.00;61.50;;;;;8.95;99.21;98898.59;6306615;20;1928601;-52
2023/11/10 10:22:50;;;;;;;;;41.33;33.00;;;;;8.82;98.44;98892.34;6282372;20;3615906;-54
2023/11/10 10:25:21;;;;;;;;;72.00;51.00;;;;;9.09;99.83;98892.28;6283413;20;3654491;-54
2023/11/10 10:27:51;;;;;;;;;71.00;55.33;;;;;9.73;96.01;98881.56;6284575;20;3645093;-51
2023/11/10 10:30:24;;;;;;;;;309.50;261.50;;;;;9.15;97.24;98882.97;6316783;20;3718059;-54
2023/11/10 10:32:52;;;;;;;;;217.00;187.00;;;;;9.38;97.17;98900.13;6275746;20;1952352;-52
2023/11/10 10:35:23;;;;;;;;;270.25;226.00;;;;;8.93;98.49;98881.75;6283145;20;4515985;-47
2023/11/10 10:37:53;;;;;;;;;67.67;54.67;;;;;9.06;98.34;98888.94;6283610;20;3604461;-47
2023/11/10 10:40:24;;;;;;;;;70.00;53.00;;;;;9.29;96.77;98874.81;6284281;20;3630507;-49
2023/11/10 10:42:54;;;;;;;;;42.50;30.75;;;;;9.39;96.30;98877.72;6318060;20;3640944;-53
2023/11/10 10:45:26;;;;;;;;;45.33;38.33;;;;;9.42;95.43;98882.88;6313051;20;2866067;-57
2023/11/10 10:48:04;;;;;;;;;50.00;39.67;;;;;10.43;92.33;98880.16;6314626;20;2857544;-49
2023/11/10 10:50:34;;;;;;;;;20.33;17.67;;;;;9.23;95.25;98875.25;6314236;20;3561872;-53
2023/11/10 10:53:07;;;;;;;;;93.00;84.00;;;;;9.60;95.09;98859.28;6283772;20;3682596;-51
2023/11/10 10:55:40;;;;;;;;;22.67;22.00;;;;;9.26;95.48;98853.63;6285324;20;3575253;-46
2023/11/10 10:58:12;;;;;;;;;34.33;30.00;;;;;9.97;93.96;98838.72;6283893;20;3618105;-47
2023/11/10 11:00:41;;;;;;;;;26.00;21.00;;;;;9.31;95.56;98835.41;6314145;20;3573317;-45
2023/11/10 11:03:56;;;;;;;;;44.67;36.00;;;;;9.64;95.54;98834.00;6316196;20;3626408;-46
2023/11/10 11:07:26;;;;;;;;;64.00;46.00;;;;;9.44;95.61;98824.69;6314014;20;3649261;-45
2023/11/10 11:10:53;;;;;;;;;24.50;19.00;;;;;10.04;94.02;98812.34;6281139;20;2842786;-40
2023/11/10 11:13:44;;;;;;;;;27.00;22.00;;;;;9.71;94.73;98811.13;6286836;20;2858686;-40
2023/11/10 11:16:55;;;;;;;;;28.00;24.00;;;;;9.57;94.71;98804.09;6284453;20;2846669;-50
2023/11/10 11:19:36;;;;;;;;;30.00;25.33;;;;;10.32;94.65;98800.44;6284746;20;2857773;-56